createdAt,value
2019-06-15T00:01:39.773Z,9.83
2019-06-15T00:04:09.179Z,6.67
2019-06-15T00:06:38.608Z,6.65
2019-06-15T00:09:08.471Z,10.13
2019-06-15T00:11:37.856Z,7.58
2019-06-15T00:14:07.232Z,10.48
2019-06-15T00:16:36.644Z,7.80
2019-06-15T00:19:06.029Z,8.53
2019-06-15T00:21:35.444Z,8.45
2019-06-15T00:24:04.847Z,8.10
2019-06-15T00:26:34.341Z,7.90
2019-06-15T00:29:03.696Z,8.30
2019-06-15T00:31:33.074Z,7.62
2019-06-15T00:34:02.500Z,9.15
2019-06-15T00:36:31.984Z,7.95
2019-06-15T00:39:01.383Z,7.80
2019-06-15T00:41:30.763Z,7.90
2019-06-15T00:44:00.180Z,8.83
2019-06-15T00:46:29.581Z,8.30
2019-06-15T00:48:58.959Z,7.75
2019-06-15T00:51:28.351Z,7.10
2019-06-15T00:53:57.799Z,7.80
2019-06-15T00:56:27.165Z,7.70
2019-06-15T00:58:56.569Z,6.80
2019-06-15T01:01:25.965Z,9.30
2019-06-15T01:03:55.392Z,8.50
2019-06-15T01:06:24.768Z,9.50
2019-06-15T01:08:54.412Z,7.97
2019-06-15T01:11:23.835Z,7.87
2019-06-15T01:13:53.218Z,8.78
2019-06-15T01:16:22.676Z,15.18
2019-06-15T01:18:52.061Z,10.60
2019-06-15T01:21:21.476Z,8.00
2019-06-15T01:23:50.842Z,8.53
2019-06-15T01:26:20.287Z,8.18
2019-06-15T01:28:49.663Z,8.88
2019-06-15T01:31:19.035Z,8.73
2019-06-15T01:33:48.433Z,9.15
2019-06-15T01:36:17.815Z,8.55
2019-06-15T01:38:47.285Z,8.35
2019-06-15T01:41:16.667Z,9.18
2019-06-15T01:43:46.099Z,9.88
2019-06-15T01:46:15.536Z,9.75
2019-06-15T01:48:44.958Z,10.50
2019-06-15T01:51:14.414Z,9.33
2019-06-15T01:53:43.856Z,10.90
2019-06-15T01:56:13.224Z,12.28
2019-06-15T01:58:42.648Z,9.83
2019-06-15T02:01:12.059Z,9.50
2019-06-15T02:03:41.468Z,10.32
2019-06-15T02:06:10.885Z,12.20
2019-06-15T02:08:40.367Z,13.30
2019-06-15T02:11:09.772Z,10.30
2019-06-15T02:13:39.416Z,9.43
2019-06-15T02:16:08.881Z,12.20
2019-06-15T02:18:38.317Z,11.90
2019-06-15T02:21:07.726Z,11.28
2019-06-15T02:23:37.079Z,10.88
2019-06-15T02:26:06.511Z,10.85
2019-06-15T02:28:35.928Z,10.60
2019-06-15T02:31:05.459Z,10.32
2019-06-15T02:33:34.840Z,10.43
2019-06-15T02:36:04.383Z,11.60
2019-06-15T02:38:33.767Z,11.57
2019-06-15T02:41:03.176Z,10.25
2019-06-15T02:43:32.576Z,11.38
2019-06-15T02:46:02.179Z,11.10
2019-06-15T02:48:31.675Z,10.13
2019-06-15T02:51:01.394Z,10.93
2019-06-15T02:53:30.827Z,10.30
2019-06-15T02:56:00.254Z,11.60
2019-06-15T02:58:29.628Z,10.55
2019-06-15T03:01:04.623Z,11.95
2019-06-15T03:03:34.122Z,12.93
2019-06-15T03:06:03.880Z,11.83
2019-06-15T03:08:33.837Z,14.38
2019-06-15T03:11:03.468Z,12.33
2019-06-15T03:13:34.952Z,13.90
2019-06-15T03:16:04.705Z,14.30
2019-06-15T03:18:34.237Z,13.32
2019-06-15T03:21:03.745Z,13.45
2019-06-15T03:23:33.164Z,16.40
2019-06-15T03:26:05.782Z,15.38
2019-06-15T03:28:33.639Z,16.12
2019-06-15T03:31:03.063Z,14.13
2019-06-15T03:33:32.475Z,16.75
2019-06-15T03:36:01.931Z,15.43
2019-06-15T03:38:31.409Z,14.45
2019-06-15T03:41:00.837Z,14.75
2019-06-15T03:43:30.266Z,16.73
2019-06-15T03:45:59.929Z,14.60
2019-06-15T03:48:29.373Z,15.55
2019-06-15T03:50:58.778Z,15.20
2019-06-15T03:53:28.195Z,15.85
2019-06-15T03:55:57.584Z,15.83
2019-06-15T03:58:27.021Z,14.78
2019-06-15T04:01:07.512Z,16.05
2019-06-15T04:03:36.949Z,17.52
2019-06-15T04:06:06.385Z,17.42
2019-06-15T04:08:35.821Z,16.32
2019-06-15T04:11:05.348Z,15.43
2019-06-15T04:13:34.819Z,16.07
2019-06-15T04:16:04.397Z,14.60
2019-06-15T04:18:33.747Z,15.72
2019-06-15T04:21:03.188Z,18.70
2019-06-15T04:23:32.571Z,16.35
2019-06-15T04:26:02.007Z,15.20
2019-06-15T04:28:31.392Z,13.55
2019-06-15T04:31:00.783Z,16.02
2019-06-15T04:33:30.266Z,17.37
2019-06-15T04:35:59.596Z,12.20
2019-06-15T04:38:29.024Z,12.40
2019-06-15T04:41:01.446Z,12.30
2019-06-15T04:43:29.506Z,15.83
2019-06-15T04:45:58.954Z,12.05
2019-06-15T04:48:28.340Z,16.73
2019-06-15T04:50:57.792Z,11.00
2019-06-15T04:53:27.212Z,12.68
2019-06-15T04:55:56.618Z,12.05
2019-06-15T04:58:25.929Z,12.10
2019-06-15T05:00:55.328Z,14.05
2019-06-15T05:03:24.986Z,13.15
2019-06-15T05:05:54.404Z,13.32
2019-06-15T05:08:23.789Z,15.15
2019-06-15T05:10:59.375Z,12.23
2019-06-15T05:13:24.304Z,10.18
2019-06-15T05:15:53.816Z,11.93
2019-06-15T05:18:23.240Z,7.62
2019-06-15T05:20:52.620Z,9.78
2019-06-15T05:23:22.025Z,12.88
2019-06-15T05:25:51.423Z,8.00
2019-06-15T05:28:20.816Z,10.68
2019-06-15T05:30:50.286Z,8.28
2019-06-15T05:33:19.746Z,10.75
2019-06-15T05:35:49.151Z,8.63
2019-06-15T05:38:18.570Z,10.80
2019-06-15T05:40:47.949Z,13.30
2019-06-15T05:43:17.357Z,9.20
2019-06-15T05:45:46.752Z,13.18
2019-06-15T05:48:16.184Z,10.48
2019-06-15T05:50:45.556Z,9.80
2019-06-15T05:53:14.973Z,13.15
2019-06-15T05:55:44.530Z,10.13
2019-06-15T05:58:13.896Z,9.13
2019-06-15T06:00:43.338Z,10.90
2019-06-15T06:03:12.814Z,12.47
2019-06-15T06:05:42.212Z,10.38
2019-06-15T06:08:11.596Z,6.28
2019-06-15T06:10:41.029Z,14.53
2019-06-15T06:13:10.435Z,9.20
2019-06-15T06:15:39.878Z,13.58
2019-06-15T06:18:09.496Z,13.00
2019-06-15T06:20:38.899Z,9.03
2019-06-15T06:23:08.308Z,7.90
2019-06-15T06:25:37.704Z,8.40
2019-06-15T06:28:07.141Z,10.30
2019-06-15T06:30:36.547Z,10.30
2019-06-15T06:33:05.981Z,7.70
2019-06-15T06:35:35.486Z,15.35
2019-06-15T06:38:04.912Z,8.75
2019-06-15T06:40:34.320Z,13.75
2019-06-15T06:43:03.712Z,9.58
2019-06-15T06:45:33.231Z,9.40
2019-06-15T06:48:02.624Z,11.43
2019-06-15T06:50:32.068Z,7.22
2019-06-15T06:53:01.445Z,5.70
2019-06-15T06:55:30.864Z,8.95
2019-06-15T06:58:00.258Z,8.78
2019-06-15T07:00:30.247Z,8.65
2019-06-15T07:02:59.736Z,9.73
2019-06-15T07:05:29.192Z,6.47
2019-06-15T07:07:58.563Z,11.33
2019-06-15T07:10:28.012Z,7.83
2019-06-15T07:12:57.448Z,9.10
2019-06-15T07:15:26.870Z,6.35
2019-06-15T07:17:56.303Z,10.65
2019-06-15T07:20:25.701Z,6.53
2019-06-15T07:22:55.123Z,8.95
2019-06-15T07:25:24.505Z,6.33
2019-06-15T07:28:07.107Z,5.83
2019-06-15T07:30:24.959Z,5.47
2019-06-15T07:32:54.343Z,8.10
2019-06-15T07:35:23.836Z,9.58
2019-06-15T07:37:53.237Z,6.67
2019-06-15T07:40:22.641Z,4.25
2019-06-15T07:42:52.432Z,12.25
2019-06-15T07:45:21.858Z,8.00
2019-06-15T07:47:51.314Z,12.37
2019-06-15T07:50:20.676Z,6.67
2019-06-15T07:52:50.103Z,8.08
2019-06-15T07:55:19.779Z,5.33
2019-06-15T07:57:49.180Z,6.62
2019-06-15T08:00:18.759Z,8.78
2019-06-15T08:02:48.168Z,5.45
2019-06-15T08:05:17.566Z,6.08
2019-06-15T08:07:47.071Z,6.67
2019-06-15T08:10:16.456Z,2.72
2019-06-15T08:12:45.909Z,8.15
2019-06-15T08:15:15.429Z,4.62
2019-06-15T08:17:45.795Z,10.72
2019-06-15T08:20:15.737Z,7.00
2019-06-15T08:22:45.115Z,6.65
2019-06-15T08:25:14.620Z,5.28
2019-06-15T08:27:44.017Z,4.87
2019-06-15T08:30:15.398Z,5.33
2019-06-15T08:32:44.785Z,4.22
2019-06-15T08:35:14.208Z,8.88
2019-06-15T08:37:43.660Z,7.42
2019-06-15T08:40:13.171Z,5.50
2019-06-15T08:42:42.576Z,6.65
2019-06-15T08:45:12.171Z,8.15
2019-06-15T08:47:41.649Z,7.35
2019-06-15T08:50:12.323Z,3.85
2019-06-15T08:52:41.844Z,6.20
2019-06-15T08:55:11.359Z,4.03
2019-06-15T08:57:40.805Z,4.25
2019-06-15T09:00:10.521Z,5.97
2019-06-15T09:02:39.896Z,6.62
2019-06-15T09:05:10.416Z,3.62
2019-06-15T09:07:39.897Z,6.85
2019-06-15T09:10:09.659Z,6.70
2019-06-15T09:12:39.108Z,8.25
2019-06-15T09:15:09.273Z,4.12
2019-06-15T09:17:38.749Z,7.20
2019-06-15T09:20:09.370Z,7.85
2019-06-15T09:22:38.775Z,5.40
2019-06-15T09:25:08.534Z,4.03
2019-06-15T09:27:37.932Z,6.72
2019-06-15T09:30:07.584Z,5.42
2019-06-15T09:32:37.016Z,5.55
2019-06-15T09:35:06.893Z,4.25
2019-06-15T09:37:36.369Z,6.17
2019-06-15T09:40:06.418Z,4.00
2019-06-15T09:42:35.872Z,3.70
2019-06-15T09:45:05.580Z,3.15
2019-06-15T09:47:35.004Z,5.00
2019-06-15T09:50:04.620Z,3.33
2019-06-15T09:52:34.048Z,5.03
2019-06-15T09:55:03.429Z,4.97
2019-06-15T09:57:32.824Z,4.78
2019-06-15T10:00:02.616Z,4.17
2019-06-15T10:02:32.328Z,3.02
2019-06-15T10:05:01.746Z,5.20
2019-06-15T10:07:31.112Z,6.55
2019-06-15T10:10:00.517Z,3.72
2019-06-15T10:12:29.952Z,3.77
2019-06-15T10:15:00.247Z,2.98
2019-06-15T10:17:29.688Z,2.60
2019-06-15T10:19:59.107Z,2.27
2019-06-15T10:22:28.565Z,7.55
2019-06-15T10:24:57.961Z,1.77
2019-06-15T10:27:27.399Z,4.22
2019-06-15T10:29:56.779Z,3.65
2019-06-15T10:32:26.196Z,3.47
2019-06-15T10:34:55.641Z,3.12
2019-06-15T10:37:25.063Z,4.25
2019-06-15T10:39:54.465Z,3.17
2019-06-15T10:42:23.872Z,2.80
2019-06-15T10:44:53.251Z,3.50
2019-06-15T10:47:22.733Z,4.90
2019-06-15T10:49:52.152Z,3.12
2019-06-15T10:52:21.535Z,2.77
2019-06-15T10:54:50.948Z,5.78
2019-06-15T10:57:20.422Z,3.17
2019-06-15T10:59:57.401Z,3.95
2019-06-15T11:02:20.912Z,2.80
2019-06-15T11:04:50.380Z,3.65
2019-06-15T11:07:19.763Z,3.30
2019-06-15T11:09:49.215Z,2.80
2019-06-15T11:12:18.618Z,1.80
2019-06-15T11:14:48.043Z,4.70
2019-06-15T11:17:17.449Z,4.70
2019-06-15T11:19:46.868Z,5.70
2019-06-15T11:22:16.314Z,5.97
2019-06-15T11:24:45.683Z,2.35
2019-06-15T11:27:15.202Z,3.42
2019-06-15T11:29:44.582Z,2.60
2019-06-15T11:32:14.007Z,3.35
2019-06-15T11:34:43.441Z,2.95
2019-06-15T11:37:12.838Z,5.05
2019-06-15T11:39:42.269Z,3.75
2019-06-15T11:42:11.675Z,3.22
2019-06-15T11:44:41.111Z,2.65
2019-06-15T11:47:10.506Z,3.40
2019-06-15T11:49:39.899Z,2.67
2019-06-15T11:52:09.305Z,3.33
2019-06-15T11:54:38.731Z,2.92
2019-06-15T11:57:08.144Z,3.90
2019-06-15T11:59:37.594Z,2.25
2019-06-15T12:02:07.057Z,3.47
2019-06-15T12:04:36.441Z,2.20
2019-06-15T12:07:05.963Z,3.58
2019-06-15T12:09:35.376Z,4.12
2019-06-15T12:12:04.905Z,2.15
2019-06-15T12:14:34.389Z,4.30
2019-06-15T12:17:03.831Z,3.67
2019-06-15T12:19:33.270Z,2.70
2019-06-15T12:22:02.689Z,3.15
2019-06-15T12:24:32.093Z,4.22
2019-06-15T12:27:01.516Z,4.90
2019-06-15T12:29:30.937Z,4.20
2019-06-15T12:32:00.372Z,6.58
2019-06-15T12:34:29.822Z,3.55
2019-06-15T12:36:59.233Z,7.65
2019-06-15T12:39:28.652Z,2.58
2019-06-15T12:41:58.056Z,3.87
2019-06-15T12:44:27.448Z,3.67
2019-06-15T12:46:56.917Z,3.95
2019-06-15T12:49:26.288Z,2.30
2019-06-15T12:51:55.699Z,2.15
2019-06-15T12:54:25.131Z,2.42
2019-06-15T12:56:54.558Z,2.47
2019-06-15T12:59:24.020Z,2.75
2019-06-15T13:01:53.413Z,5.60
2019-06-15T13:04:22.856Z,1.80
2019-06-15T13:06:52.257Z,7.12
2019-06-15T13:09:21.647Z,3.15
2019-06-15T13:11:51.128Z,4.05
2019-06-15T13:14:20.525Z,4.53
2019-06-15T13:16:49.973Z,3.77
2019-06-15T13:19:19.421Z,2.70
2019-06-15T13:21:48.810Z,2.83
2019-06-15T13:24:18.345Z,4.37
2019-06-15T13:26:47.756Z,3.10
2019-06-15T13:29:17.203Z,4.78
2019-06-15T13:31:47.032Z,3.05
2019-06-15T13:34:16.482Z,3.27
2019-06-15T13:36:45.896Z,2.27
2019-06-15T13:39:15.276Z,3.00
2019-06-15T13:41:44.733Z,2.77
2019-06-15T13:44:14.143Z,4.47
2019-06-15T13:46:43.512Z,14.83
2019-06-15T13:49:12.875Z,6.78
2019-06-15T13:51:42.248Z,2.58
2019-06-15T13:54:11.695Z,4.65
2019-06-15T13:56:41.067Z,2.12
2019-06-15T13:59:10.496Z,3.70
2019-06-15T14:01:39.875Z,1.90
2019-06-15T14:04:09.292Z,3.52
2019-06-15T14:06:38.707Z,3.60
2019-06-15T14:09:08.390Z,4.87
2019-06-15T14:11:37.768Z,3.17
2019-06-15T14:14:07.204Z,4.08
2019-06-15T14:16:36.659Z,5.90
2019-06-15T14:19:06.075Z,4.00
2019-06-15T14:21:35.536Z,3.27
2019-06-15T14:24:04.901Z,3.55
2019-06-15T14:26:34.304Z,3.33
2019-06-15T14:29:03.689Z,2.33
2019-06-15T14:31:33.109Z,4.12
2019-06-15T14:34:02.479Z,6.20
2019-06-15T14:36:32.008Z,5.40
2019-06-15T14:39:01.441Z,3.45
2019-06-15T14:41:30.909Z,3.05
2019-06-15T14:44:00.309Z,1.70
2019-06-15T14:46:29.739Z,1.98
2019-06-15T14:48:59.103Z,3.02
2019-06-15T14:51:28.513Z,4.80
2019-06-15T14:53:59.125Z,2.25
2019-06-15T14:56:28.712Z,2.30
2019-06-15T14:58:58.148Z,7.00
2019-06-15T15:01:27.834Z,4.17
2019-06-15T15:03:57.353Z,4.33
2019-06-15T15:06:26.789Z,2.30
2019-06-15T15:08:56.366Z,3.55
2019-06-15T15:11:26.459Z,3.12
2019-06-15T15:13:56.259Z,3.75
2019-06-15T15:16:25.723Z,4.78
2019-06-15T15:18:56.743Z,1.95
2019-06-15T15:21:27.993Z,4.60
2019-06-15T15:23:57.818Z,3.12
2019-06-15T15:26:27.332Z,3.83
2019-06-15T15:28:56.784Z,4.50
2019-06-15T15:31:27.221Z,4.67
2019-06-15T15:33:56.755Z,7.95
2019-06-15T15:36:26.412Z,5.92
2019-06-15T15:38:56.179Z,4.20
2019-06-15T15:41:26.619Z,3.17
2019-06-15T15:43:56.177Z,4.33
2019-06-15T15:46:25.604Z,4.78
2019-06-15T15:48:56.891Z,3.37
2019-06-15T15:51:26.232Z,3.95
2019-06-15T15:53:56.710Z,5.08
2019-06-15T15:56:27.241Z,3.55
2019-06-15T15:58:56.795Z,4.37
2019-06-15T16:01:26.477Z,4.47
2019-06-15T16:03:56.249Z,4.67
2019-06-15T16:06:26.179Z,3.17
2019-06-15T16:08:56.957Z,2.25
2019-06-15T16:11:26.764Z,4.17
2019-06-15T16:13:56.508Z,6.33
2019-06-15T16:16:26.716Z,6.12
2019-06-15T16:18:56.311Z,4.08
2019-06-15T16:21:26.028Z,14.05
2019-06-15T16:23:58.188Z,5.67
2019-06-15T16:26:27.207Z,3.52
2019-06-15T16:28:56.720Z,2.15
2019-06-15T16:31:29.129Z,6.03
2019-06-15T16:33:57.178Z,4.42
2019-06-15T16:36:26.566Z,7.53
2019-06-15T16:38:55.952Z,4.28
2019-06-15T16:41:25.914Z,5.87
2019-06-15T16:43:56.304Z,6.15
2019-06-15T16:46:26.346Z,3.12
2019-06-15T16:48:56.005Z,5.08
2019-06-15T16:51:26.961Z,4.20
2019-06-15T16:53:57.084Z,3.80
2019-06-15T16:56:26.877Z,3.25
2019-06-15T16:58:56.441Z,5.47
2019-06-15T17:01:27.506Z,4.40
2019-06-15T17:03:57.137Z,2.95
2019-06-15T17:06:26.969Z,2.52
2019-06-15T17:08:56.718Z,4.37
2019-06-15T17:11:26.460Z,3.27
2019-06-15T17:13:56.375Z,6.58
2019-06-15T17:16:26.129Z,3.80
2019-06-15T17:18:56.202Z,3.67
2019-06-15T17:21:26.144Z,2.77
2019-06-15T17:23:57.269Z,4.30
2019-06-15T17:26:26.815Z,2.98
2019-06-15T17:28:56.683Z,2.72
2019-06-15T17:31:27.155Z,3.25
2019-06-15T17:33:56.620Z,2.67
2019-06-15T17:36:27.606Z,2.52
2019-06-15T17:38:57.182Z,3.55
2019-06-15T17:41:26.707Z,4.03
2019-06-15T17:43:56.587Z,4.40
2019-06-15T17:46:29.589Z,4.08
2019-06-15T17:48:57.159Z,3.50
2019-06-15T17:51:27.058Z,2.47
2019-06-15T17:53:56.498Z,3.42
2019-06-15T17:56:26.805Z,3.83
2019-06-15T17:58:56.455Z,5.40
2019-06-15T18:01:26.594Z,4.92
2019-06-15T18:03:58.187Z,5.25
2019-06-15T18:06:27.226Z,2.20
2019-06-15T18:08:56.635Z,3.47
2019-06-15T18:11:26.357Z,5.25
2019-06-15T18:13:56.627Z,5.03
2019-06-15T18:16:29.592Z,3.62
2019-06-15T18:18:57.221Z,3.90
2019-06-15T18:21:26.989Z,3.37
2019-06-15T18:23:57.316Z,2.45
2019-06-15T18:26:26.913Z,2.37
2019-06-15T18:28:56.311Z,2.80
2019-06-15T18:31:26.932Z,3.27
2019-06-15T18:34:06.509Z,3.95
2019-06-15T18:36:27.620Z,3.30
2019-06-15T18:38:57.599Z,4.10
2019-06-15T18:41:27.031Z,3.02
2019-06-15T18:43:56.600Z,2.05
2019-06-15T18:46:27.258Z,3.85
2019-06-15T18:48:57.052Z,4.10
2019-06-15T18:51:27.019Z,7.22
2019-06-15T18:53:56.596Z,2.67
2019-06-15T18:56:27.101Z,4.33
2019-06-15T18:58:56.603Z,5.28
2019-06-15T19:01:27.113Z,4.83
2019-06-15T19:03:56.589Z,2.85
2019-06-15T19:06:26.515Z,2.52
2019-06-15T19:08:57.441Z,4.95
2019-06-15T19:11:27.441Z,3.80
2019-06-15T19:13:56.870Z,2.75
2019-06-15T19:16:26.308Z,4.15
2019-06-15T19:18:56.654Z,3.00
2019-06-15T19:21:26.210Z,3.35
2019-06-15T19:23:56.485Z,2.10
2019-06-15T19:26:26.864Z,4.10
2019-06-15T19:28:56.301Z,4.45
2019-06-15T19:31:27.754Z,3.62
2019-06-15T19:33:56.942Z,7.35
2019-06-15T19:36:26.354Z,2.08
2019-06-15T19:38:57.146Z,3.87
2019-06-15T19:41:26.731Z,7.37
2019-06-15T19:43:57.099Z,2.80
2019-06-15T19:46:26.555Z,3.02
2019-06-15T19:48:56.112Z,2.90
2019-06-15T19:51:26.404Z,3.90
2019-06-15T19:53:56.697Z,2.95
2019-06-15T19:56:26.162Z,3.02
2019-06-15T19:58:56.488Z,2.85
2019-06-15T20:01:26.329Z,2.20
2019-06-15T20:03:57.454Z,3.70
2019-06-15T20:06:26.960Z,5.00
2019-06-15T20:08:56.414Z,6.10
2019-06-15T20:11:25.749Z,1.90
2019-06-15T20:13:56.201Z,4.60
2019-06-15T20:16:25.740Z,2.35
2019-06-15T20:18:56.291Z,2.17
2019-06-15T20:21:25.844Z,2.87
2019-06-15T20:23:56.579Z,2.10
2019-06-15T20:26:26.846Z,2.83
2019-06-15T20:28:56.493Z,3.70
2019-06-15T20:31:25.861Z,3.30
2019-06-15T20:33:57.001Z,2.37
2019-06-15T20:36:26.974Z,6.22
2019-06-15T20:38:56.475Z,2.77
2019-06-15T20:41:26.949Z,4.50
2019-06-15T20:43:56.659Z,9.88
2019-06-15T20:46:26.492Z,6.53
2019-06-15T20:48:56.517Z,4.83
2019-06-15T20:51:25.931Z,4.45
2019-06-15T20:53:56.715Z,2.55
2019-06-15T20:56:26.682Z,7.83
2019-06-15T20:58:57.203Z,4.42
2019-06-15T21:01:26.667Z,9.08
2019-06-15T21:03:56.566Z,5.95
2019-06-15T21:06:26.215Z,3.75
2019-06-15T21:08:55.603Z,5.65
2019-06-15T21:11:26.533Z,5.40
2019-06-15T21:13:56.076Z,4.42
2019-06-15T21:16:26.196Z,7.50
2019-06-15T21:18:57.086Z,3.70
2019-06-15T21:21:27.680Z,4.92
2019-06-15T21:23:57.179Z,4.28
2019-06-15T21:26:27.267Z,6.92
2019-06-15T21:28:56.718Z,5.42
2019-06-15T21:31:26.363Z,5.25
2019-06-15T21:33:56.202Z,4.40
2019-06-15T21:36:26.171Z,3.47
2019-06-15T21:38:56.352Z,4.75
2019-06-15T21:41:26.301Z,6.20
2019-06-15T21:43:56.523Z,4.28
2019-06-15T21:46:26.704Z,5.00
2019-06-15T21:48:56.434Z,5.12
2019-06-15T21:51:27.055Z,3.62
2019-06-15T21:53:56.573Z,4.03
2019-06-15T21:56:29.008Z,4.65
2019-06-15T21:58:57.000Z,4.75
2019-06-15T22:01:37.477Z,5.78
2019-06-15T22:04:07.193Z,4.25
2019-06-15T22:06:37.225Z,3.62
2019-06-15T22:09:12.533Z,4.85
2019-06-15T22:11:46.909Z,4.65
2019-06-15T22:14:17.183Z,12.45
2019-06-15T22:16:46.708Z,6.50
2019-06-15T22:19:16.959Z,3.87
2019-06-15T22:21:47.760Z,8.48
2019-06-15T22:24:17.299Z,5.50
2019-06-15T22:26:46.867Z,7.60
2019-06-15T22:29:16.923Z,6.53
2019-06-15T22:31:46.756Z,7.45
2019-06-15T22:34:16.347Z,7.95
2019-06-15T22:36:47.772Z,4.65
2019-06-15T22:39:17.165Z,6.08
2019-06-15T22:41:47.083Z,5.85
2019-06-15T22:44:17.239Z,5.47
2019-06-15T22:46:46.664Z,6.65
2019-06-15T22:49:16.207Z,5.47
2019-06-15T22:51:46.000Z,5.05
2019-06-15T22:54:16.671Z,4.58
2019-06-15T22:56:46.563Z,10.60
2019-06-15T22:59:16.897Z,7.62
2019-06-15T23:01:46.424Z,6.55
2019-06-15T23:04:17.265Z,4.10
2019-06-15T23:06:48.225Z,4.85
2019-06-15T23:09:17.790Z,5.85
2019-06-15T23:11:47.176Z,7.95
2019-06-15T23:14:17.225Z,5.97
2019-06-15T23:16:47.483Z,4.75
2019-06-15T23:19:17.545Z,3.80
2019-06-15T23:21:47.010Z,5.53
2019-06-15T23:24:16.705Z,7.03
2019-06-15T23:26:46.292Z,5.05
2019-06-15T23:29:16.455Z,8.53
2019-06-15T23:31:46.297Z,6.45
2019-06-15T23:34:16.294Z,4.97
2019-06-15T23:36:56.335Z,5.72
2019-06-15T23:39:18.460Z,5.50
2019-06-15T23:41:47.872Z,5.10
2019-06-15T23:44:17.325Z,7.42
2019-06-15T23:46:47.028Z,8.28
2019-06-15T23:49:16.545Z,6.40
2019-06-15T23:51:46.675Z,8.50
2019-06-15T23:54:16.282Z,5.40
2019-06-15T23:56:46.196Z,6.58
2019-06-15T23:59:18.054Z,6.58
